sensor_id;sensor_type;location;lat;lon;timestamp;temperature;humidity
8591;DHT22;4333;48.322;14.340;2022-07-06T00:01:43;16.90;99.90
8591;DHT22;4333;48.322;14.340;2022-07-06T00:04:09;16.90;99.90
8591;DHT22;4333;48.322;14.340;2022-07-06T00:06:35;16.80;99.90
8591;DHT22;4333;48.322;14.340;2022-07-06T00:09:02;16.90;99.90
8591;DHT22;4333;48.322;14.340;2022-07-06T00:11:28;17.00;99.90
8591;DHT22;4333;48.322;14.340;2022-07-06T00:13:59;17.00;99.90
8591;DHT22;4333;48.322;14.340;2022-07-06T00:16:25;16.80;99.90
8591;DHT22;4333;48.322;14.340;2022-07-06T00:18:53;16.70;99.90
8591;DHT22;4333;48.322;14.340;2022-07-06T00:21:18;16.60;99.90
8591;DHT22;4333;48.322;14.340;2022-07-06T00:23:44;16.50;99.90
8591;DHT22;4333;48.322;14.340;2022-07-06T00:26:13;16.50;99.90
8591;DHT22;4333;48.322;14.340;2022-07-06T00:28:39;16.50;99.90
8591;DHT22;4333;48.322;14.340;2022-07-06T00:31:04;16.60;99.90
8591;DHT22;4333;48.322;14.340;2022-07-06T00:33:33;16.60;99.90
8591;DHT22;4333;48.322;14.340;2022-07-06T00:35:58;16.60;99.90
8591;DHT22;4333;48.322;14.340;2022-07-06T00:38:24;16.70;99.90
8591;DHT22;4333;48.322;14.340;2022-07-06T00:40:52;16.70;99.90
8591;DHT22;4333;48.322;14.340;2022-07-06T00:43:20;16.80;99.90
8591;DHT22;4333;48.322;14.340;2022-07-06T00:45:46;16.70;99.90
8591;DHT22;4333;48.322;14.340;2022-07-06T00:48:14;16.70;99.90
8591;DHT22;4333;48.322;14.340;2022-07-06T00:50:40;16.70;99.90
8591;DHT22;4333;48.322;14.340;2022-07-06T00:53:06;16.70;99.90
8591;DHT22;4333;48.322;14.340;2022-07-06T00:55:36;16.70;99.90
8591;DHT22;4333;48.322;14.340;2022-07-06T00:58:05;16.60;99.90
8591;DHT22;4333;48.322;14.340;2022-07-06T01:00:34;16.50;99.90
8591;DHT22;4333;48.322;14.340;2022-07-06T01:03:05;16.30;99.90
8591;DHT22;4333;48.322;14.340;2022-07-06T01:05:31;16.20;99.90
8591;DHT22;4333;48.322;14.340;2022-07-06T01:07:59;16.30;99.90
8591;DHT22;4333;48.322;14.340;2022-07-06T01:10:26;16.40;99.90
8591;DHT22;4333;48.322;14.340;2022-07-06T01:12:52;16.40;99.90
8591;DHT22;4333;48.322;14.340;2022-07-06T01:15:22;16.40;99.90
8591;DHT22;4333;48.322;14.340;2022-07-06T01:17:49;16.40;99.90
8591;DHT22;4333;48.322;14.340;2022-07-06T01:20:19;16.50;99.90
8591;DHT22;4333;48.322;14.340;2022-07-06T01:22:49;16.50;99.90
8591;DHT22;4333;48.322;14.340;2022-07-06T01:25:16;16.40;99.90
8591;DHT22;4333;48.322;14.340;2022-07-06T01:27:43;16.30;99.90
8591;DHT22;4333;48.322;14.340;2022-07-06T01:30:13;16.30;99.90
8591;DHT22;4333;48.322;14.340;2022-07-06T01:32:40;16.20;99.90
8591;DHT22;4333;48.322;14.340;2022-07-06T01:35:08;16.20;99.90
8591;DHT22;4333;48.322;14.340;2022-07-06T01:37:36;16.30;99.90
8591;DHT22;4333;48.322;14.340;2022-07-06T01:40:06;16.40;99.90
8591;DHT22;4333;48.322;14.340;2022-07-06T01:42:33;16.50;99.90
8591;DHT22;4333;48.322;14.340;2022-07-06T01:44:58;16.40;99.90
8591;DHT22;4333;48.322;14.340;2022-07-06T01:47:24;16.30;99.90
8591;DHT22;4333;48.322;14.340;2022-07-06T01:49:51;16.20;99.90
8591;DHT22;4333;48.322;14.340;2022-07-06T01:52:17;16.20;99.90
8591;DHT22;4333;48.322;14.340;2022-07-06T01:54:43;16.20;99.90
8591;DHT22;4333;48.322;14.340;2022-07-06T01:57:09;16.30;99.90
8591;DHT22;4333;48.322;14.340;2022-07-06T01:59:37;16.20;99.90
8591;DHT22;4333;48.322;14.340;2022-07-06T02:02:03;16.30;99.90
8591;DHT22;4333;48.322;14.340;2022-07-06T02:04:31;16.30;99.90
8591;DHT22;4333;48.322;14.340;2022-07-06T02:06:57;16.20;99.90
8591;DHT22;4333;48.322;14.340;2022-07-06T02:09:23;16.10;99.90
8591;DHT22;4333;48.322;14.340;2022-07-06T02:11:50;16.10;99.90
8591;DHT22;4333;48.322;14.340;2022-07-06T02:14:19;16.20;99.90
8591;DHT22;4333;48.322;14.340;2022-07-06T02:16:47;16.20;99.90
8591;DHT22;4333;48.322;14.340;2022-07-06T02:19:14;16.20;99.90
8591;DHT22;4333;48.322;14.340;2022-07-06T02:21:43;16.10;99.90
8591;DHT22;4333;48.322;14.340;2022-07-06T02:24:12;16.10;99.90
8591;DHT22;4333;48.322;14.340;2022-07-06T02:26:37;16.00;99.90
8591;DHT22;4333;48.322;14.340;2022-07-06T02:29:05;16.10;99.90
8591;DHT22;4333;48.322;14.340;2022-07-06T02:31:35;16.10;99.90
8591;DHT22;4333;48.322;14.340;2022-07-06T02:34:04;16.10;99.90
8591;DHT22;4333;48.322;14.340;2022-07-06T02:36:30;16.00;99.90
8591;DHT22;4333;48.322;14.340;2022-07-06T02:38:57;15.90;99.90
8591;DHT22;4333;48.322;14.340;2022-07-06T02:41:23;15.90;99.90
8591;DHT22;4333;48.322;14.340;2022-07-06T02:43:52;15.80;99.90
8591;DHT22;4333;48.322;14.340;2022-07-06T02:46:24;15.70;99.90
8591;DHT22;4333;48.322;14.340;2022-07-06T02:48:50;15.70;99.90
8591;DHT22;4333;48.322;14.340;2022-07-06T02:51:17;15.60;99.90
8591;DHT22;4333;48.322;14.340;2022-07-06T02:53:43;15.60;99.90
8591;DHT22;4333;48.322;14.340;2022-07-06T02:56:12;15.60;99.90
8591;DHT22;4333;48.322;14.340;2022-07-06T02:58:38;15.50;99.90
8591;DHT22;4333;48.322;14.340;2022-07-06T03:01:05;15.40;99.90
8591;DHT22;4333;48.322;14.340;2022-07-06T03:03:33;15.30;99.90
8591;DHT22;4333;48.322;14.340;2022-07-06T03:05:59;15.10;99.90
8591;DHT22;4333;48.322;14.340;2022-07-06T03:08:27;15.10;99.90
8591;DHT22;4333;48.322;14.340;2022-07-06T03:10:53;15.10;99.90
8591;DHT22;4333;48.322;14.340;2022-07-06T03:13:19;15.10;99.90
8591;DHT22;4333;48.322;14.340;2022-07-06T03:15:45;15.10;99.90
8591;DHT22;4333;48.322;14.340;2022-07-06T03:18:11;15.10;99.90
8591;DHT22;4333;48.322;14.340;2022-07-06T03:20:42;15.00;99.90
8591;DHT22;4333;48.322;14.340;2022-07-06T03:23:11;15.00;99.90
8591;DHT22;4333;48.322;14.340;2022-07-06T03:25:39;15.00;99.90
8591;DHT22;4333;48.322;14.340;2022-07-06T03:28:05;15.00;99.90
8591;DHT22;4333;48.322;14.340;2022-07-06T03:30:31;15.00;99.90
8591;DHT22;4333;48.322;14.340;2022-07-06T03:33:02;14.90;99.90
8591;DHT22;4333;48.322;14.340;2022-07-06T03:35:30;15.00;99.90
8591;DHT22;4333;48.322;14.340;2022-07-06T03:37:56;15.00;99.90
8591;DHT22;4333;48.322;14.340;2022-07-06T03:40:22;15.00;99.90
8591;DHT22;4333;48.322;14.340;2022-07-06T03:42:48;14.90;99.90
8591;DHT22;4333;48.322;14.340;2022-07-06T03:45:14;15.00;99.90
8591;DHT22;4333;48.322;14.340;2022-07-06T03:47:40;15.00;99.90
8591;DHT22;4333;48.322;14.340;2022-07-06T03:50:07;15.00;99.90
8591;DHT22;4333;48.322;14.340;2022-07-06T03:52:34;15.00;99.90
8591;DHT22;4333;48.322;14.340;2022-07-06T03:55:00;15.00;99.90
8591;DHT22;4333;48.322;14.340;2022-07-06T03:57:30;15.00;99.90
8591;DHT22;4333;48.322;14.340;2022-07-06T03:59:59;15.00;99.90
8591;DHT22;4333;48.322;14.340;2022-07-06T04:02:25;15.00;99.90
8591;DHT22;4333;48.322;14.340;2022-07-06T04:04:53;15.10;99.90
8591;DHT22;4333;48.322;14.340;2022-07-06T04:07:18;15.10;99.90
8591;DHT22;4333;48.322;14.340;2022-07-06T04:09:45;15.10;99.90
8591;DHT22;4333;48.322;14.340;2022-07-06T04:12:13;15.10;99.90
8591;DHT22;4333;48.322;14.340;2022-07-06T04:14:41;15.10;99.90
8591;DHT22;4333;48.322;14.340;2022-07-06T04:17:06;15.20;99.90
8591;DHT22;4333;48.322;14.340;2022-07-06T04:19:53;15.20;99.90
8591;DHT22;4333;48.322;14.340;2022-07-06T04:22:19;15.30;99.90
8591;DHT22;4333;48.322;14.340;2022-07-06T04:24:45;15.30;99.90
8591;DHT22;4333;48.322;14.340;2022-07-06T04:27:11;15.40;99.90
8591;DHT22;4333;48.322;14.340;2022-07-06T04:29:36;15.50;99.90
8591;DHT22;4333;48.322;14.340;2022-07-06T04:32:05;15.50;99.90
8591;DHT22;4333;48.322;14.340;2022-07-06T04:34:31;15.50;99.90
8591;DHT22;4333;48.322;14.340;2022-07-06T04:37:00;15.50;99.90
8591;DHT22;4333;48.322;14.340;2022-07-06T04:39:26;15.50;99.90
8591;DHT22;4333;48.322;14.340;2022-07-06T04:41:53;15.50;99.90
8591;DHT22;4333;48.322;14.340;2022-07-06T04:44:18;15.60;99.90
8591;DHT22;4333;48.322;14.340;2022-07-06T04:46:44;15.60;99.90
8591;DHT22;4333;48.322;14.340;2022-07-06T04:49:11;15.60;99.90
8591;DHT22;4333;48.322;14.340;2022-07-06T04:51:40;15.50;99.90
8591;DHT22;4333;48.322;14.340;2022-07-06T04:54:06;15.60;99.90
8591;DHT22;4333;48.322;14.340;2022-07-06T04:56:34;15.70;99.90
8591;DHT22;4333;48.322;14.340;2022-07-06T04:59:04;15.70;99.90
8591;DHT22;4333;48.322;14.340;2022-07-06T05:01:30;15.80;99.90
8591;DHT22;4333;48.322;14.340;2022-07-06T05:03:57;15.80;99.90
8591;DHT22;4333;48.322;14.340;2022-07-06T05:06:24;15.80;99.90
8591;DHT22;4333;48.322;14.340;2022-07-06T05:08:52;15.80;99.90
8591;DHT22;4333;48.322;14.340;2022-07-06T05:11:20;15.90;99.90
8591;DHT22;4333;48.322;14.340;2022-07-06T05:13:46;15.90;99.90
8591;DHT22;4333;48.322;14.340;2022-07-06T05:16:14;16.00;99.90
8591;DHT22;4333;48.322;14.340;2022-07-06T05:18:43;16.10;99.90
8591;DHT22;4333;48.322;14.340;2022-07-06T05:21:10;16.30;99.90
8591;DHT22;4333;48.322;14.340;2022-07-06T05:23:36;16.60;99.90
8591;DHT22;4333;48.322;14.340;2022-07-06T05:26:02;17.00;99.90
8591;DHT22;4333;48.322;14.340;2022-07-06T05:28:28;17.20;99.90
8591;DHT22;4333;48.322;14.340;2022-07-06T05:30:55;17.20;99.90
8591;DHT22;4333;48.322;14.340;2022-07-06T05:33:23;17.30;99.90
8591;DHT22;4333;48.322;14.340;2022-07-06T05:35:51;17.30;99.90
8591;DHT22;4333;48.322;14.340;2022-07-06T05:38:22;17.80;99.90
8591;DHT22;4333;48.322;14.340;2022-07-06T05:40:50;18.20;99.90
8591;DHT22;4333;48.322;14.340;2022-07-06T05:43:16;18.20;99.90
8591;DHT22;4333;48.322;14.340;2022-07-06T05:45:42;18.30;99.90
8591;DHT22;4333;48.322;14.340;2022-07-06T05:48:08;18.20;99.90
8591;DHT22;4333;48.322;14.340;2022-07-06T05:50:52;18.60;99.90
8591;DHT22;4333;48.322;14.340;2022-07-06T05:53:18;19.10;99.90
8591;DHT22;4333;48.322;14.340;2022-07-06T05:55:44;19.20;99.90
8591;DHT22;4333;48.322;14.340;2022-07-06T05:58:09;19.70;99.90
8591;DHT22;4333;48.322;14.340;2022-07-06T06:00:38;20.90;99.90
8591;DHT22;4333;48.322;14.340;2022-07-06T06:03:05;22.90;99.90
8591;DHT22;4333;48.322;14.340;2022-07-06T06:05:33;24.90;99.90
8591;DHT22;4333;48.322;14.340;2022-07-06T06:08:00;24.60;99.90
8591;DHT22;4333;48.322;14.340;2022-07-06T06:10:27;24.00;99.90
8591;DHT22;4333;48.322;14.340;2022-07-06T06:12:54;23.50;99.90
8591;DHT22;4333;48.322;14.340;2022-07-06T06:15:26;22.70;99.90
8591;DHT22;4333;48.322;14.340;2022-07-06T06:17:53;22.40;99.90
8591;DHT22;4333;48.322;14.340;2022-07-06T06:20:20;22.70;99.90
8591;DHT22;4333;48.322;14.340;2022-07-06T06:22:50;23.80;99.90
8591;DHT22;4333;48.322;14.340;2022-07-06T06:25:37;24.20;99.90
8591;DHT22;4333;48.322;14.340;2022-07-06T06:28:11;25.20;99.90
8591;DHT22;4333;48.322;14.340;2022-07-06T06:30:42;25.50;99.90
8591;DHT22;4333;48.322;14.340;2022-07-06T06:33:19;25.10;99.90
8591;DHT22;4333;48.322;14.340;2022-07-06T06:36:03;25.00;99.50
8591;DHT22;4333;48.322;14.340;2022-07-06T06:38:31;24.20;99.90
8591;DHT22;4333;48.322;14.340;2022-07-06T06:41:01;24.70;99.90
8591;DHT22;4333;48.322;14.340;2022-07-06T06:43:29;24.70;97.40
8591;DHT22;4333;48.322;14.340;2022-07-06T06:45:55;25.10;97.50
8591;DHT22;4333;48.322;14.340;2022-07-06T06:48:25;24.70;95.10
8591;DHT22;4333;48.322;14.340;2022-07-06T06:50:53;24.70;97.40
8591;DHT22;4333;48.322;14.340;2022-07-06T06:53:22;25.20;95.30
8591;DHT22;4333;48.322;14.340;2022-07-06T06:55:48;25.90;96.30
8591;DHT22;4333;48.322;14.340;2022-07-06T06:58:16;27.20;91.10
8591;DHT22;4333;48.322;14.340;2022-07-06T07:00:46;28.40;85.50
8591;DHT22;4333;48.322;14.340;2022-07-06T07:03:14;29.30;75.50
8591;DHT22;4333;48.322;14.340;2022-07-06T07:05:40;30.00;72.00
8591;DHT22;4333;48.322;14.340;2022-07-06T07:08:06;31.00;67.10
8591;DHT22;4333;48.322;14.340;2022-07-06T07:10:32;29.10;65.20
8591;DHT22;4333;48.322;14.340;2022-07-06T07:13:00;27.80;76.80
8591;DHT22;4333;48.322;14.340;2022-07-06T07:15:29;28.70;76.80
8591;DHT22;4333;48.322;14.340;2022-07-06T07:17:55;27.20;75.70
8591;DHT22;4333;48.322;14.340;2022-07-06T07:20:21;27.00;81.50
8591;DHT22;4333;48.322;14.340;2022-07-06T07:22:47;26.20;84.20
8591;DHT22;4333;48.322;14.340;2022-07-06T07:25:15;25.70;85.10
8591;DHT22;4333;48.322;14.340;2022-07-06T07:27:41;25.20;91.10
8591;DHT22;4333;48.322;14.340;2022-07-06T07:30:12;24.30;93.10
8591;DHT22;4333;48.322;14.340;2022-07-06T07:32:41;23.90;96.30
8591;DHT22;4333;48.322;14.340;2022-07-06T07:35:12;23.10;99.90
8591;DHT22;4333;48.322;14.340;2022-07-06T07:37:41;22.70;99.90
8591;DHT22;4333;48.322;14.340;2022-07-06T07:40:10;22.90;99.90
8591;DHT22;4333;48.322;14.340;2022-07-06T07:42:43;23.00;99.90
8591;DHT22;4333;48.322;14.340;2022-07-06T07:45:12;23.20;99.90
8591;DHT22;4333;48.322;14.340;2022-07-06T07:47:41;22.90;99.90
8591;DHT22;4333;48.322;14.340;2022-07-06T07:50:07;23.00;99.90
8591;DHT22;4333;48.322;14.340;2022-07-06T07:52:36;23.00;99.90
8591;DHT22;4333;48.322;14.340;2022-07-06T07:55:03;22.80;99.90
8591;DHT22;4333;48.322;14.340;2022-07-06T07:57:30;23.10;99.90
8591;DHT22;4333;48.322;14.340;2022-07-06T07:59:58;23.00;99.90
8591;DHT22;4333;48.322;14.340;2022-07-06T08:02:25;23.10;99.90
8591;DHT22;4333;48.322;14.340;2022-07-06T08:04:55;23.40;99.90
8591;DHT22;4333;48.322;14.340;2022-07-06T08:07:24;23.80;99.90
8591;DHT22;4333;48.322;14.340;2022-07-06T08:09:53;23.80;99.90
8591;DHT22;4333;48.322;14.340;2022-07-06T08:12:20;23.70;99.90
8591;DHT22;4333;48.322;14.340;2022-07-06T08:14:47;23.30;99.90
8591;DHT22;4333;48.322;14.340;2022-07-06T08:17:13;23.30;99.90
8591;DHT22;4333;48.322;14.340;2022-07-06T08:19:42;23.30;99.90
8591;DHT22;4333;48.322;14.340;2022-07-06T08:22:10;23.70;99.90
8591;DHT22;4333;48.322;14.340;2022-07-06T08:24:36;23.40;99.90
8591;DHT22;4333;48.322;14.340;2022-07-06T08:27:05;23.50;99.90
8591;DHT22;4333;48.322;14.340;2022-07-06T08:29:33;23.50;99.90
8591;DHT22;4333;48.322;14.340;2022-07-06T08:32:00;23.40;99.90
8591;DHT22;4333;48.322;14.340;2022-07-06T08:34:27;23.80;99.90
8591;DHT22;4333;48.322;14.340;2022-07-06T08:36:56;23.70;99.90
8591;DHT22;4333;48.322;14.340;2022-07-06T08:39:23;23.90;99.90
8591;DHT22;4333;48.322;14.340;2022-07-06T08:41:52;23.80;99.90
8591;DHT22;4333;48.322;14.340;2022-07-06T08:44:19;24.30;99.90
8591;DHT22;4333;48.322;14.340;2022-07-06T08:46:49;24.70;97.20
8591;DHT22;4333;48.322;14.340;2022-07-06T08:49:17;24.60;96.20
8591;DHT22;4333;48.322;14.340;2022-07-06T08:51:45;24.10;96.50
8591;DHT22;4333;48.322;14.340;2022-07-06T08:54:13;24.10;96.20
8591;DHT22;4333;48.322;14.340;2022-07-06T08:56:44;23.90;96.30
8591;DHT22;4333;48.322;14.340;2022-07-06T08:59:10;23.70;96.50
8591;DHT22;4333;48.322;14.340;2022-07-06T09:01:38;23.60;96.70
8591;DHT22;4333;48.322;14.340;2022-07-06T09:04:06;23.70;96.60
8591;DHT22;4333;48.322;14.340;2022-07-06T09:06:36;23.50;96.40
8591;DHT22;4333;48.322;14.340;2022-07-06T09:09:06;23.50;97.30
8591;DHT22;4333;48.322;14.340;2022-07-06T09:11:33;23.70;97.90
8591;DHT22;4333;48.322;14.340;2022-07-06T09:13:59;24.10;98.50
8591;DHT22;4333;48.322;14.340;2022-07-06T09:16:29;25.20;97.60
8591;DHT22;4333;48.322;14.340;2022-07-06T09:18:55;26.00;95.40
8591;DHT22;4333;48.322;14.340;2022-07-06T09:21:29;25.80;90.90
8591;DHT22;4333;48.322;14.340;2022-07-06T09:24:05;26.00;93.50
8591;DHT22;4333;48.322;14.340;2022-07-06T09:26:34;26.70;88.90
8591;DHT22;4333;48.322;14.340;2022-07-06T09:29:02;26.10;80.40
8591;DHT22;4333;48.322;14.340;2022-07-06T09:31:30;26.20;82.30
8591;DHT22;4333;48.322;14.340;2022-07-06T09:34:04;26.70;82.50
8591;DHT22;4333;48.322;14.340;2022-07-06T09:36:45;27.10;84.30
8591;DHT22;4333;48.322;14.340;2022-07-06T09:39:23;27.50;79.20
8591;DHT22;4333;48.322;14.340;2022-07-06T09:41:54;27.60;73.10
8591;DHT22;4333;48.322;14.340;2022-07-06T09:44:30;26.70;77.60
8591;DHT22;4333;48.322;14.340;2022-07-06T09:47:02;27.00;81.10
8591;DHT22;4333;48.322;14.340;2022-07-06T09:49:29;27.10;77.70
8591;DHT22;4333;48.322;14.340;2022-07-06T09:51:57;27.60;75.90
8591;DHT22;4333;48.322;14.340;2022-07-06T09:54:27;27.40;74.40
8591;DHT22;4333;48.322;14.340;2022-07-06T09:56:54;27.00;72.90
8591;DHT22;4333;48.322;14.340;2022-07-06T09:59:24;27.20;67.60
8591;DHT22;4333;48.322;14.340;2022-07-06T10:01:59;27.20;65.60
8591;DHT22;4333;48.322;14.340;2022-07-06T10:04:29;27.70;62.00
8591;DHT22;4333;48.322;14.340;2022-07-06T10:07:01;28.30;59.70
8591;DHT22;4333;48.322;14.340;2022-07-06T10:09:29;28.70;60.00
8591;DHT22;4333;48.322;14.340;2022-07-06T10:12:00;28.20;57.30
8591;DHT22;4333;48.322;14.340;2022-07-06T10:14:30;27.80;59.70
8591;DHT22;4333;48.322;14.340;2022-07-06T10:17:03;28.30;60.20
8591;DHT22;4333;48.322;14.340;2022-07-06T10:19:31;28.40;56.20
8591;DHT22;4333;48.322;14.340;2022-07-06T10:22:02;28.40;54.70
8591;DHT22;4333;48.322;14.340;2022-07-06T10:24:31;28.80;57.00
8591;DHT22;4333;48.322;14.340;2022-07-06T10:27:03;29.10;57.70
8591;DHT22;4333;48.322;14.340;2022-07-06T10:29:31;29.50;56.50
8591;DHT22;4333;48.322;14.340;2022-07-06T10:32:01;29.80;55.10
8591;DHT22;4333;48.322;14.340;2022-07-06T10:34:30;30.00;48.80
8591;DHT22;4333;48.322;14.340;2022-07-06T10:36:59;30.10;47.30
8591;DHT22;4333;48.322;14.340;2022-07-06T10:39:36;29.10;46.60
8591;DHT22;4333;48.322;14.340;2022-07-06T10:42:40;28.70;48.70
8591;DHT22;4333;48.322;14.340;2022-07-06T10:45:12;28.90;52.10
8591;DHT22;4333;48.322;14.340;2022-07-06T10:47:42;29.10;51.00
8591;DHT22;4333;48.322;14.340;2022-07-06T10:50:09;29.70;53.50
8591;DHT22;4333;48.322;14.340;2022-07-06T10:53:15;30.10;50.30
8591;DHT22;4333;48.322;14.340;2022-07-06T10:55:49;30.10;52.10
8591;DHT22;4333;48.322;14.340;2022-07-06T11:01:10;28.40;52.30
8591;DHT22;4333;48.322;14.340;2022-07-06T11:03:39;28.70;52.00
8591;DHT22;4333;48.322;14.340;2022-07-06T11:11:17;28.70;50.00
8591;DHT22;4333;48.322;14.340;2022-07-06T11:13:55;28.80;53.30
8591;DHT22;4333;48.322;14.340;2022-07-06T11:16:25;29.40;54.90
8591;DHT22;4333;48.322;14.340;2022-07-06T11:21:49;28.40;48.80
8591;DHT22;4333;48.322;14.340;2022-07-06T11:24:24;28.50;49.90
8591;DHT22;4333;48.322;14.340;2022-07-06T11:26:52;28.90;51.90
8591;DHT22;4333;48.322;14.340;2022-07-06T11:29:22;29.10;49.20
8591;DHT22;4333;48.322;14.340;2022-07-06T11:31:57;28.70;50.80
8591;DHT22;4333;48.322;14.340;2022-07-06T11:34:32;28.60;47.30
8591;DHT22;4333;48.322;14.340;2022-07-06T11:37:06;28.20;49.20
8591;DHT22;4333;48.322;14.340;2022-07-06T11:39:38;27.80;45.20
8591;DHT22;4333;48.322;14.340;2022-07-06T11:42:10;27.40;49.70
8591;DHT22;4333;48.322;14.340;2022-07-06T11:44:39;28.00;49.00
8591;DHT22;4333;48.322;14.340;2022-07-06T11:47:06;28.10;45.00
8591;DHT22;4333;48.322;14.340;2022-07-06T11:49:35;28.20;50.10
8591;DHT22;4333;48.322;14.340;2022-07-06T11:52:13;28.20;49.90
8591;DHT22;4333;48.322;14.340;2022-07-06T11:54:41;28.50;47.60
8591;DHT22;4333;48.322;14.340;2022-07-06T11:57:12;28.70;49.50
8591;DHT22;4333;48.322;14.340;2022-07-06T11:59:41;28.90;46.80
8591;DHT22;4333;48.322;14.340;2022-07-06T12:02:10;29.40;45.90
8591;DHT22;4333;48.322;14.340;2022-07-06T12:04:42;29.10;40.20
8591;DHT22;4333;48.322;14.340;2022-07-06T12:07:13;28.90;44.50
8591;DHT22;4333;48.322;14.340;2022-07-06T12:09:42;28.80;45.40
8591;DHT22;4333;48.322;14.340;2022-07-06T12:12:14;28.60;41.30
8591;DHT22;4333;48.322;14.340;2022-07-06T12:14:43;28.20;42.60
8591;DHT22;4333;48.322;14.340;2022-07-06T12:17:13;28.20;45.80
8591;DHT22;4333;48.322;14.340;2022-07-06T12:19:43;28.10;43.10
8591;DHT22;4333;48.322;14.340;2022-07-06T12:22:13;28.40;40.70
8591;DHT22;4333;48.322;14.340;2022-07-06T12:24:43;28.80;44.80
8591;DHT22;4333;48.322;14.340;2022-07-06T12:29:39;29.70;42.30
8591;DHT22;4333;48.322;14.340;2022-07-06T12:32:06;29.80;39.60
8591;DHT22;4333;48.322;14.340;2022-07-06T12:34:34;29.90;39.20
8591;DHT22;4333;48.322;14.340;2022-07-06T12:37:10;30.00;38.60
8591;DHT22;4333;48.322;14.340;2022-07-06T12:39:48;30.10;37.60
8591;DHT22;4333;48.322;14.340;2022-07-06T12:42:17;29.50;39.70
8591;DHT22;4333;48.322;14.340;2022-07-06T12:44:52;29.50;37.80
8591;DHT22;4333;48.322;14.340;2022-07-06T12:47:23;29.00;35.90
8591;DHT22;4333;48.322;14.340;2022-07-06T12:50:10;28.90;35.90
8591;DHT22;4333;48.322;14.340;2022-07-06T12:52:37;29.40;35.10
8591;DHT22;4333;48.322;14.340;2022-07-06T12:55:03;28.90;34.00
8591;DHT22;4333;48.322;14.340;2022-07-06T12:57:44;28.60;31.30
8591;DHT22;4333;48.322;14.340;2022-07-06T13:00:10;28.60;36.90
8591;DHT22;4333;48.322;14.340;2022-07-06T13:02:37;28.90;38.00
8591;DHT22;4333;48.322;14.340;2022-07-06T13:05:10;29.10;36.20
8591;DHT22;4333;48.322;14.340;2022-07-06T13:07:43;28.80;33.30
8591;DHT22;4333;48.322;14.340;2022-07-06T13:10:13;28.10;35.20
8591;DHT22;4333;48.322;14.340;2022-07-06T13:12:43;28.20;42.80
8591;DHT22;4333;48.322;14.340;2022-07-06T13:15:14;28.60;45.80
8591;DHT22;4333;48.322;14.340;2022-07-06T13:17:43;28.90;46.30
8591;DHT22;4333;48.322;14.340;2022-07-06T13:20:12;29.20;47.30
8591;DHT22;4333;48.322;14.340;2022-07-06T13:22:39;29.20;46.40
8591;DHT22;4333;48.322;14.340;2022-07-06T13:25:14;29.10;43.50
8591;DHT22;4333;48.322;14.340;2022-07-06T13:27:48;28.90;44.10
8591;DHT22;4333;48.322;14.340;2022-07-06T13:30:42;28.40;45.00
8591;DHT22;4333;48.322;14.340;2022-07-06T13:33:09;28.30;45.40
8591;DHT22;4333;48.322;14.340;2022-07-06T13:35:39;28.70;46.90
8591;DHT22;4333;48.322;14.340;2022-07-06T13:38:08;28.80;42.20
8591;DHT22;4333;48.322;14.340;2022-07-06T13:40:34;29.00;42.90
8591;DHT22;4333;48.322;14.340;2022-07-06T13:43:02;29.50;42.40
8591;DHT22;4333;48.322;14.340;2022-07-06T13:45:31;29.70;41.00
8591;DHT22;4333;48.322;14.340;2022-07-06T13:48:02;29.70;39.80
8591;DHT22;4333;48.322;14.340;2022-07-06T13:50:30;29.60;39.40
8591;DHT22;4333;48.322;14.340;2022-07-06T13:52:59;29.70;40.10
8591;DHT22;4333;48.322;14.340;2022-07-06T13:55:33;29.70;39.20
8591;DHT22;4333;48.322;14.340;2022-07-06T13:58:10;29.80;37.10
8591;DHT22;4333;48.322;14.340;2022-07-06T14:00:40;29.70;36.00
8591;DHT22;4333;48.322;14.340;2022-07-06T14:03:11;29.80;36.40
8591;DHT22;4333;48.322;14.340;2022-07-06T14:05:39;29.70;37.50
8591;DHT22;4333;48.322;14.340;2022-07-06T14:08:04;29.70;39.30
8591;DHT22;4333;48.322;14.340;2022-07-06T14:10:30;30.10;38.00
8591;DHT22;4333;48.322;14.340;2022-07-06T14:12:56;30.30;38.90
8591;DHT22;4333;48.322;14.340;2022-07-06T14:15:29;30.40;41.70
8591;DHT22;4333;48.322;14.340;2022-07-06T14:17:59;29.40;32.60
8591;DHT22;4333;48.322;14.340;2022-07-06T14:20:40;28.90;35.60
8591;DHT22;4333;48.322;14.340;2022-07-06T14:23:13;29.30;38.00
8591;DHT22;4333;48.322;14.340;2022-07-06T14:26:03;29.50;37.70
8591;DHT22;4333;48.322;14.340;2022-07-06T14:28:47;29.30;36.70
8591;DHT22;4333;48.322;14.340;2022-07-06T14:31:20;29.20;38.60
8591;DHT22;4333;48.322;14.340;2022-07-06T14:34:14;29.00;37.00
8591;DHT22;4333;48.322;14.340;2022-07-06T14:36:52;29.10;38.00
8591;DHT22;4333;48.322;14.340;2022-07-06T14:39:27;29.40;37.80
8591;DHT22;4333;48.322;14.340;2022-07-06T14:42:01;29.10;36.20
8591;DHT22;4333;48.322;14.340;2022-07-06T14:44:40;29.20;37.00
8591;DHT22;4333;48.322;14.340;2022-07-06T14:47:14;29.00;35.90
8591;DHT22;4333;48.322;14.340;2022-07-06T14:49:53;28.70;35.80
8591;DHT22;4333;48.322;14.340;2022-07-06T14:52:29;28.90;35.30
8591;DHT22;4333;48.322;14.340;2022-07-06T14:54:59;29.00;35.80
8591;DHT22;4333;48.322;14.340;2022-07-06T14:57:29;28.90;36.70
8591;DHT22;4333;48.322;14.340;2022-07-06T14:59:59;28.90;38.70
8591;DHT22;4333;48.322;14.340;2022-07-06T15:02:27;29.00;37.40
8591;DHT22;4333;48.322;14.340;2022-07-06T15:04:53;28.80;34.00
8591;DHT22;4333;48.322;14.340;2022-07-06T15:07:22;28.70;35.90
8591;DHT22;4333;48.322;14.340;2022-07-06T15:09:51;29.00;36.10
8591;DHT22;4333;48.322;14.340;2022-07-06T15:12:20;29.20;35.50
8591;DHT22;4333;48.322;14.340;2022-07-06T15:14:49;29.00;32.90
8591;DHT22;4333;48.322;14.340;2022-07-06T15:17:17;28.90;32.20
8591;DHT22;4333;48.322;14.340;2022-07-06T15:19:45;29.00;34.00
8591;DHT22;4333;48.322;14.340;2022-07-06T15:22:13;29.00;34.50
8591;DHT22;4333;48.322;14.340;2022-07-06T15:24:40;28.90;32.80
8591;DHT22;4333;48.322;14.340;2022-07-06T15:27:09;28.70;31.80
8591;DHT22;4333;48.322;14.340;2022-07-06T15:29:37;28.50;33.40
8591;DHT22;4333;48.322;14.340;2022-07-06T15:32:06;28.30;35.50
8591;DHT22;4333;48.322;14.340;2022-07-06T15:34:35;28.00;34.50
8591;DHT22;4333;48.322;14.340;2022-07-06T15:37:04;27.90;33.80
8591;DHT22;4333;48.322;14.340;2022-07-06T15:39:32;27.50;33.70
8591;DHT22;4333;48.322;14.340;2022-07-06T15:42:00;27.70;35.10
8591;DHT22;4333;48.322;14.340;2022-07-06T15:44:33;28.00;33.00
8591;DHT22;4333;48.322;14.340;2022-07-06T15:47:07;28.40;34.30
8591;DHT22;4333;48.322;14.340;2022-07-06T15:49:35;28.50;32.30
8591;DHT22;4333;48.322;14.340;2022-07-06T15:52:03;28.10;30.00
8591;DHT22;4333;48.322;14.340;2022-07-06T15:54:30;28.00;31.00
8591;DHT22;4333;48.322;14.340;2022-07-06T15:56:57;28.00;31.40
8591;DHT22;4333;48.322;14.340;2022-07-06T15:59:27;27.90;31.50
8591;DHT22;4333;48.322;14.340;2022-07-06T16:01:57;28.00;30.80
8591;DHT22;4333;48.322;14.340;2022-07-06T16:04:28;28.30;32.10
8591;DHT22;4333;48.322;14.340;2022-07-06T16:06:56;28.50;31.10
8591;DHT22;4333;48.322;14.340;2022-07-06T16:09:24;28.30;29.60
8591;DHT22;4333;48.322;14.340;2022-07-06T16:11:51;28.30;31.50